Roaming Rock Shores, Ohio
Current Conditions -  °F | °C
As of 3:53 AM on Friday 19 Dec 2014 (Local Time) from KHZY Reporting Station
Overcast Overcast  
Wind Chill: 24°   Ceiling: 1700
Heat Index: 30°   Visibility: 10mi
Dew Point: 25°   Wind: 6mph
Humidity: 82%   Direction: 300°WNW
Pressure: 30.15"   Gusts: NA
Location:  41.6051°N, 80.867°W
Report Text: KHZY 190853Z AUTO 30005KT 10SM OVC017 M01/M04 A3015 RMK AO2 SLP219 T10111039 53006
Loading
Personal Weather Stations






























Interactive Weather Map New forecast layout! Learn more

10-Day Weather Forecast

Advertisements
Track Severe Weather on mobile